Latest Weather Observations for Ballera

IDQ60801

Issued at 8:02 pm EST Monday 5 December 2016 (issued every 30 minutes, with the page automatically refreshed every 10 minutes)

About weather observations | Map of weather stations | Latest weather observations for QLD | Other Formats
Station Details ID: 045009 Name: BALLERA GAS FIELD Lat: -27.40 Lon: 141.81 Height: 114.5 m
Data from the previous 72 hours. | See also: Recent months at Ballera
Date/Time
EST
Temp
°C
App
Temp
°C
Dew
Point
°C
Rel
Hum
%
Delta-T
°C
Wind Press
QNH
hPa
Press
MSL
hPa
Rain since
9am
mm
Dir  Spd
km/h
Gust
km/h
Spd
kts
Gust
kts
05/08:00pm 34.9 31.7 12.0 25 13.7 SW 20 26 11 14 1009.0 1008.2 0.0
05/07:30pm 35.7 31.2 11.4 23 14.5 SW 26 35 14 19 1008.6 1007.8 0.0
05/07:00pm 36.5 31.8 12.0 23 14.8 SW 28 35 15 19 1008.3 1007.5 0.0
05/06:30pm 37.3 31.7 12.0 22 15.3 SW 33 43 18 23 1007.8 1007.0 0.0
05/06:00pm 39.1 33.2 11.3 19 16.8 WSW 33 46 18 25 1007.5 1006.7 0.0
05/05:35pm 39.7 33.9 10.9 18 17.3 WSW 32 50 17 27 1007.5 1006.7 0.0
05/05:30pm 39.6 34.6 10.8 18 17.2 WSW 28 39 15 21 1007.5 1006.7 0.0
05/05:00pm 40.0 36.0 10.3 17 17.7 WSW 22 30 12 16 1007.6 1006.8 0.0
05/04:35pm 38.4 32.6 11.5 20 16.2 WSW 33 52 18 28 1007.8 1007.0 0.0
05/04:30pm 37.9 30.7 11.8 21 15.8 W 41 56 22 30 1007.9 1007.1 0.0
05/04:20pm 39.8 33.8 10.2 17 17.6 W 32 50 17 27 1007.6 1006.8 0.0
05/04:00pm 40.3 35.1 8.7 15 18.5 WNW 26 39 14 21 1007.6 1006.8 0.0
05/03:30pm 41.0 34.9 8.2 14 19.0 NW 30 43 16 23 1007.7 1006.9 0.0
05/03:00pm 41.1 36.4 9.3 15 18.8 NW 24 37 13 20 1008.1 1007.3 0.0
05/02:34pm 40.8 35.0 8.1 14 18.9 NW 28 46 15 25 1008.4 1007.6 0.0
05/02:30pm 41.4 35.0 8.5 14 19.2 NNW 32 46 17 25 1008.4 1007.6 0.0
05/02:06pm 41.5 35.6 7.5 13 19.6 WNW 28 50 15 27 1008.5 1007.7 0.0
05/02:00pm 41.0 36.4 8.2 14 19.1 WNW 22 39 12 21 1008.6 1007.8 0.0
05/01:30pm 41.0 34.5 8.2 14 19.0 WNW 32 43 17 23 1008.9 1008.1 0.0
05/01:00pm 41.0 35.6 8.2 14 19.1 WNW 26 37 14 20 1009.2 1008.4 0.0
05/12:30pm 39.4 34.2 8.9 16 17.8 WNW 26 39 14 21 1009.6 1008.8 0.0
05/12:00pm 39.0 34.5 8.6 16 17.6 WNW 22 32 12 17 1009.8 1009.0 0.0
05/11:30am 39.3 35.3 8.9 16 17.7 WNW 20 33 11 18 1010.1 1009.3 0.0
05/11:00am 39.4 36.7 8.9 16 17.8 WNW 13 20 7 11 1010.1 1009.3 0.0
05/10:30am 39.3 36.1 9.8 17 17.4 NW 17 26 9 14 1010.6 1009.8 0.0
05/10:00am 38.9 36.3 9.4 17 17.3 NW 13 19 7 10 1010.8 1010.0 0.0
05/09:30am 37.9 36.3 8.6 17 16.9 NW 7 11 4 6 1011.0 1010.2 0.0
05/09:00am 36.7 34.9 9.3 19 15.9 ENE 9 15 5 8 1011.1 1010.3 0.0
05/08:30am 36.3 33.8 9.8 20 15.4 ENE 13 22 7 12 1011.3 1010.5 0.0
05/08:00am 36.1 33.6 9.6 20 15.4 ENE 13 19 7 10 1011.7 1010.8 0.0
05/07:30am 35.6 33.3 10.6 22 14.7 ENE 13 17 7 9 1011.4 1010.6 0.0
05/07:00am 33.7 31.2 10.9 25 13.4 SE 15 17 8 9 1011.0 1010.2 0.0
05/06:30am 31.8 30.0 11.0 28 12.1 SW 11 13 6 7 1010.8 1010.0 0.0
05/06:00am 29.9 27.9 11.4 32 10.8 SW 13 15 7 8 1010.6 1009.8 0.0
05/05:30am 30.3 29.4 11.3 31 11.0 SW 7 9 4 5 1010.2 1009.4 0.0
05/05:00am 30.2 28.7 10.7 30 11.2 SW 9 13 5 7 1009.9 1009.1 0.0
05/04:30am 31.2 29.1 11.1 29 11.7 SW 13 17 7 9 1009.7 1008.9 0.0
05/04:00am 31.8 28.5 11.0 28 12.1 SW 19 24 10 13 1009.3 1008.5 0.0
05/03:30am 32.0 28.8 10.1 26 12.6 SW 17 28 9 15 1009.0 1008.2 0.0
05/03:18am 31.8 29.8 8.7 24 13.0 SSW 9 11 5 6 1008.7 1007.9 0.0
05/03:00am 32.3 30.4 9.2 24 13.1 SSW 9 11 5 6 1008.6 1007.8 0.0
05/02:59am 32.3 30.3 8.5 23 13.3 SSW 9 11 5 6 1008.5 1007.7 0.0
05/02:30am 32.8 30.5 8.9 23 13.5 SSW 11 13 6 7 1008.7 1007.9 0.0
05/02:00am 33.4 30.8 9.4 23 13.7 SSW 13 17 7 9 1008.6 1007.8 0.0
05/01:30am 34.0 30.1 8.6 21 14.4 SSW 19 22 10 12 1008.4 1007.6 0.0
05/01:00am 34.0 30.1 9.3 22 14.2 SSW 20 24 11 13 1008.3 1007.5 0.0
05/12:30am 34.6 30.6 8.4 20 14.8 SSW 19 22 10 12 1008.5 1007.7 0.0
05/12:00am 35.1 30.5 8.0 19 15.3 SW 22 28 12 15 1008.7 1007.9 0.0
 
Date/Time
EST
Temp
°C
App
Temp
°C
Dew
Point
°C
Rel
Hum
%
Delta-T
°C
Wind Press
QNH
hPa
Press
MSL
hPa
Rain since
9am
mm
Dir  Spd
km/h
Gust
km/h
Spd
kts
Gust
kts
04/11:30pm 35.4 30.8 8.3 19 15.4 SW 22 28 12 15 1008.6 1007.8 0.0
04/11:00pm 35.8 31.3 8.6 19 15.5 SW 22 30 12 16 1008.6 1007.8 0.0
04/10:30pm 36.5 32.2 9.2 19 15.8 SW 22 30 12 16 1008.5 1007.7 0.0
04/10:00pm 35.9 32.9 9.4 20 15.3 W 15 17 8 9 1008.4 1007.6 0.0
04/09:30pm 36.5 33.9 9.2 19 15.8 WNW 13 17 7 9 1008.3 1007.5 0.0
04/09:00pm 37.0 33.7 7.9 17 16.6 WNW 15 19 8 10 1008.1 1007.3 0.0
04/08:30pm 37.7 28.4 7.6 16 17.1 NW 46 65 25 35 1007.8 1007.0 0.0
04/08:00pm 37.0 29.5 9.6 19 16.0 WNW 39 57 21 31 1007.6 1006.8 0.0
04/07:42pm 37.3 29.3 9.0 18 16.4 NW 41 69 22 37 1006.6 1005.8 0.0
04/07:35pm 37.9 31.5 8.6 17 16.9 WNW 32 54 17 29 1006.9 1006.1 0.0
04/07:33pm 39.3 33.3 6.9 14 18.3 WNW 28 54 15 29 1006.7 1005.9 0.0
04/07:30pm 39.5 33.6 6.0 13 18.7 WNW 26 32 14 17 1006.4 1005.6 0.0
04/07:00pm 40.0 33.7 4.0 11 19.6 NW 26 39 14 21 1005.7 1004.9 0.0
04/06:30pm 39.8 32.8 6.2 13 18.8 NW 32 44 17 24 1005.7 1004.9 0.0
04/06:05pm 40.6 32.3 4.4 11 19.8 WNW 37 56 20 30 1005.5 1004.7 0.0
04/06:00pm 40.7 31.6 5.7 12 19.6 WNW 43 56 23 30 1005.4 1004.6 0.0
04/05:30pm 41.9 32.8 4.0 10 20.8 NW 41 61 22 33 1004.4 1003.5 0.0
04/05:19pm 43.3 35.8 3.6 9 21.8 NW 32 50 17 27 1004.5 1003.7 0.0
04/05:00pm 43.5 34.3 3.7 9 22.0 NW 41 56 22 30 1004.5 1003.7 0.0
04/04:50pm 43.9 36.2 2.4 8 22.5 NW 32 46 17 25 1004.4 1003.5 0.0
04/04:30pm 43.8 35.5 2.3 8 22.4 WNW 35 56 19 30 1004.5 1003.7 0.0
04/04:25pm 44.3 36.1 2.7 8 22.7 WNW 35 56 19 30 1004.5 1003.7 0.0
04/04:22pm 44.2 36.0 2.6 8 22.6 NW 35 56 19 30 1004.5 1003.7 0.0
04/04:00pm 43.8 35.5 2.3 8 22.5 NNW 35 57 19 31 1004.7 1003.9 0.0
04/03:31pm 43.9 36.5 4.0 9 22.1 NW 32 74 17 40 1005.1 1004.3 0.0
04/03:30pm 43.6 36.2 3.8 9 21.9 NW 32 46 17 25 1005.1 1004.3 0.0
04/03:00pm 44.1 36.6 4.2 9 22.2 NNW 33 54 18 29 1005.5 1004.7 0.0
04/02:45pm 43.6 36.2 3.8 9 21.9 NW 32 50 17 27 1005.7 1004.9 0.0
04/02:30pm 44.4 37.5 4.4 9 22.3 NW 30 44 16 24 1005.9 1005.1 0.0
04/02:13pm 43.1 35.4 3.4 9 21.7 NW 33 65 18 35 1006.2 1005.4 0.0
04/02:11pm 43.4 35.8 3.7 9 21.8 NW 33 65 18 35 1006.2 1005.4 0.0
04/02:09pm 44.2 36.7 4.2 9 22.2 NW 33 65 18 35 1006.1 1005.3 0.0
04/02:00pm 44.1 36.2 4.2 9 22.2 NW 35 54 19 29 1006.3 1005.5 0.0
04/01:30pm 44.0 36.7 5.6 10 21.8 NW 33 54 18 29 1006.8 1006.0 0.0
04/01:06pm 44.0 36.7 5.6 10 21.8 NW 33 65 18 35 1006.8 1006.0 0.0
04/01:00pm 43.4 36.0 5.2 10 21.5 NW 33 44 18 24 1007.1 1006.3 0.0
04/12:31pm 43.4 36.0 5.2 10 21.5 NNW 33 52 18 28 1007.5 1006.7 0.0
04/12:30pm 43.0 35.6 4.9 10 21.3 NNW 33 48 18 26 1007.6 1006.8 0.0
04/12:00pm 42.6 35.0 5.9 11 20.8 NNW 35 54 19 29 1008.0 1007.2 0.0
04/11:30am 42.9 35.8 6.2 11 20.9 NNW 33 52 18 28 1008.4 1007.6 0.0
04/11:00am 41.1 34.1 6.0 12 19.8 N 32 59 17 32 1008.9 1008.1 0.0
04/10:54am 40.9 33.6 7.1 13 19.3 N 35 54 19 29 1008.9 1008.1 0.0
04/10:30am 40.8 33.2 9.1 15 18.6 N 39 50 21 27 1009.1 1008.3 0.0
04/10:00am 40.3 32.6 8.7 15 18.4 N 39 54 21 29 1009.2 1008.4 0.0
04/09:30am 39.3 31.3 8.9 16 17.7 NNE 41 52 22 28 1009.4 1008.6 0.0
04/09:00am 38.2 31.3 8.9 17 17.0 NNE 35 50 19 27 1009.6 1008.8 -
04/08:30am 36.7 29.7 6.8 16 16.7 N 33 41 18 22 1009.9 1009.1 -
04/08:00am 35.5 28.5 6.7 17 16.0 NNE 33 43 18 23 1009.8 1009.0 -
04/07:30am 35.0 28.5 6.3 17 15.7 NE 30 37 16 20 1009.5 1008.7 -
04/07:00am 33.0 26.4 7.8 21 14.0 NNE 32 41 17 22 1009.5 1008.7 -
04/06:41am 31.3 24.6 8.3 24 12.8 NE 33 48 18 26 1009.2 1008.4 -
04/06:30am 30.7 26.8 7.2 23 12.8 E 17 24 9 13 1008.8 1008.0 -
04/06:00am 30.7 28.2 6.6 22 13.0 S 9 13 5 7 1008.0 1007.2 -
04/05:37am 30.7 27.8 6.6 22 13.0 SSW 11 15 6 8 1007.9 1007.1 -
04/05:30am 31.1 27.8 6.2 21 13.4 SSW 13 17 7 9 1007.9 1007.1 -
04/05:00am 31.9 27.4 6.2 20 13.9 SSW 19 24 10 13 1007.6 1006.8 -
04/04:31am 32.3 27.3 6.5 20 14.0 SSW 22 28 12 15 1007.6 1006.8 -
04/04:30am 32.3 27.3 6.5 20 14.0 S 22 28 12 15 1007.6 1006.8 -
04/04:10am 32.1 28.0 6.3 20 13.9 S 17 24 9 13 1008.0 1007.2 -
04/04:00am 32.0 28.7 6.2 20 13.9 SW 13 17 7 9 1008.5 1007.7 -
04/03:30am 32.1 28.0 6.3 20 13.9 W 17 22 9 12 1009.3 1008.5 -
04/03:21am 32.2 27.6 6.4 20 14.0 WNW 20 28 11 15 1009.3 1008.5 -
04/03:00am 31.4 26.5 7.1 22 13.3 WNW 22 32 12 17 1009.5 1008.7 -
04/02:53am 31.4 27.5 7.1 22 13.3 WNW 17 22 9 12 1009.2 1008.4 -
04/02:30am 31.3 27.6 6.4 21 13.4 SSW 15 19 8 10 1008.7 1007.9 -
04/02:18am 31.4 27.4 6.5 21 13.5 S 17 22 9 12 1008.5 1007.7 -
04/02:00am 31.6 27.4 5.9 20 13.8 S 17 22 9 12 1008.5 1007.7 -
04/01:44am 32.4 27.6 5.8 19 14.3 S 20 26 11 14 1008.6 1007.8 -
04/01:30am 32.2 27.4 5.7 19 14.2 SSW 20 28 11 15 1008.6 1007.8 -
04/01:17am 32.6 27.9 5.2 18 14.6 SSW 19 22 10 12 1008.9 1008.1 -
04/01:00am 33.3 28.0 5.0 17 15.1 SSE 22 26 12 14 1008.6 1007.8 -
04/12:30am 34.1 28.4 4.7 16 15.7 SSE 24 28 13 15 1009.0 1008.2 -
04/12:00am 34.5 28.3 4.1 15 16.1 SSE 26 32 14 17 1009.2 1008.4 -
 
Date/Time
EST
Temp
°C
App
Temp
°C
Dew
Point
°C
Rel
Hum
%
Delta-T
°C
Wind Press
QNH
hPa
Press
MSL
hPa
Rain since
9am
mm
Dir  Spd
km/h
Gust
km/h
Spd
kts
Gust
kts
03/11:30pm 34.8 28.4 3.4 14 16.4 SSE 26 33 14 18 1009.3 1008.5 -
03/11:00pm 35.2 28.1 3.7 14 16.6 S 30 35 16 19 1009.1 1008.3 -
03/10:30pm 36.2 29.1 1.1 11 17.9 S 28 35 15 19 1009.1 1008.3 -
03/09:30pm 37.8 32.4 1.0 10 18.9 SSE 19 24 10 13 1008.3 1007.5 0.0
03/09:27pm 37.4 32.5 2.0 11 18.4 SSE 17 24 9 13 1008.3 1007.5 0.0
03/09:05pm 36.4 32.6 5.6 15 16.8 WNW 15 17 8 9 1007.9 1007.1 0.0
03/09:00pm 35.6 31.4 4.0 14 16.8 NW 15 17 8 9 1007.9 1007.1 0.0
03/08:30pm 36.5 32.3 3.7 13 17.4 WNW 15 17 8 9 1007.4 1006.6 0.0
03/08:00pm 37.3 33.7 3.1 12 18.1 WNW 11 13 6 7 1007.0 1006.2 0.0
03/07:53pm 37.6 34.1 3.4 12 18.2 WNW 11 13 6 7 1006.9 1006.1 0.0
03/07:30pm 38.6 35.5 1.6 10 19.2 W 7 9 4 5 1006.6 1005.8 0.0
03/07:06pm 39.8 36.6 1.0 9 20.1 W 7 9 4 5 1006.4 1005.6 0.0
03/07:00pm 40.9 38.1 1.8 9 20.7 W 6 9 3 5 1006.3 1005.5 0.0
03/06:59pm 40.6 37.7 1.6 9 20.5 W 6 9 3 5 1006.2 1005.4 0.0
03/06:31pm 41.2 37.1 2.0 9 20.8 WNW 13 19 7 10 1006.0 1005.2 0.0
03/06:30pm 41.2 37.1 2.0 9 20.8 WNW 13 19 7 10 1006.0 1005.2 0.0
03/06:00pm 42.0 37.2 2.6 9 21.2 NW 17 22 9 12 1005.7 1004.9 0.0
03/05:30pm 42.9 37.9 1.6 8 22.0 NW 17 30 9 16 1005.6 1004.8 0.0
03/05:00pm 42.9 38.7 1.6 8 22.0 WNW 13 20 7 11 1005.8 1005.0 0.0
03/04:33pm 43.8 38.4 2.3 8 22.4 N 20 28 11 15 1006.0 1005.2 0.0
03/04:30pm 43.3 37.5 0.1 7 22.5 NNW 20 28 11 15 1006.0 1005.2 0.0
03/04:00pm 44.0 37.2 0.6 7 23.0 WNW 26 39 14 21 1006.2 1005.4 0.0
03/03:30pm 43.5 38.3 0.2 7 22.7 WNW 17 30 9 16 1006.4 1005.6 0.0
03/03:08pm 43.5 37.9 0.2 7 22.7 WNW 19 28 10 15 1006.6 1005.8 0.0
03/03:00pm 44.3 38.3 0.8 7 23.1 NW 22 30 12 16 1006.7 1005.9 0.0
03/02:30pm 43.5 37.9 0.2 7 22.7 WNW 19 33 10 18 1007.0 1006.2 0.0
03/02:26pm 44.2 39.8 2.6 8 22.6 WNW 15 24 8 13 1007.0 1006.2 0.0
03/02:00pm 42.6 37.2 1.4 8 21.9 W 19 30 10 16 1007.4 1006.6 0.0
03/01:57pm 42.7 37.7 1.5 8 21.9 WNW 17 30 9 16 1007.5 1006.7 0.0
03/01:50pm 42.7 37.7 1.5 8 21.9 WNW 17 28 9 15 1007.6 1006.8 0.0
03/01:30pm 42.9 37.6 1.6 8 22.0 WNW 19 33 10 18 1007.7 1006.9 0.0
03/01:16pm 43.1 38.5 1.8 8 22.1 WNW 15 33 8 18 1007.9 1007.1 0.0
03/01:01pm 43.6 37.8 2.1 8 22.3 WNW 22 33 12 18 1008.2 1007.4 0.0
03/01:00pm 42.6 36.7 1.4 8 21.9 WNW 22 33 12 18 1008.2 1007.4 0.0
03/12:37pm 41.9 37.5 2.6 9 21.1 NW 15 28 8 15 1008.4 1007.6 0.0
03/12:30pm 41.1 35.6 2.0 9 20.7 NW 20 32 11 17 1008.5 1007.7 0.0
03/12:21pm 41.2 35.9 2.0 9 20.8 NW 19 32 10 17 1008.6 1007.8 0.0
03/12:00pm 40.6 35.3 1.6 9 20.5 NW 19 30 10 16 1008.8 1008.0 0.0
03/11:30am 40.1 34.9 2.7 10 19.9 WNW 19 28 10 15 1009.1 1008.3 0.0
03/11:00am 39.7 34.3 2.4 10 19.8 W 20 28 11 15 1009.2 1008.4 0.0
03/10:30am 38.8 32.4 3.1 11 19.0 WNW 26 33 14 18 1009.5 1008.7 0.0
03/10:12am 38.4 32.5 4.0 12 18.5 WNW 24 33 13 18 1009.6 1008.8 0.0
03/10:00am 38.4 32.5 4.0 12 18.6 WNW 24 33 13 18 1009.7 1008.9 0.0
03/09:30am 36.6 30.3 1.4 11 18.0 WNW 24 33 13 18 1010.0 1009.2 0.0
03/09:00am 35.7 29.5 1.9 12 17.4 WNW 24 30 13 16 1010.1 1009.3 0.0
03/08:48am 35.4 29.5 1.7 12 17.2 WNW 22 30 12 16 1009.9 1009.1 0.0
03/08:30am 34.9 29.9 1.3 12 17.0 WNW 17 24 9 13 1010.0 1009.2 0.0
03/08:06am 33.6 29.4 1.4 13 16.2 N 13 17 7 9 1010.2 1009.4 0.0
03/08:00am 32.8 29.0 1.8 14 15.6 NE 11 15 6 8 1010.2 1009.4 0.0
03/07:30am 32.2 27.2 1.3 14 15.4 ENE 17 20 9 11 1009.3 1008.5 0.0
03/07:00am 30.9 25.9 1.3 15 14.6 E 17 20 9 11 1009.0 1008.2 0.0
03/06:30am 27.2 23.1 2.3 20 12.2 E 13 15 7 8 1008.6 1007.8 0.0
03/06:00am 26.5 22.4 2.4 21 11.8 E 13 15 7 8 1008.7 1007.9 0.0
03/05:30am 25.5 21.4 2.2 22 11.3 E 13 15 7 8 1008.8 1008.0 0.0
03/05:00am 25.8 21.2 1.8 21 11.6 E 15 17 8 9 1008.4 1007.6 0.0
03/04:30am 26.6 21.8 2.5 21 11.8 ESE 17 19 9 10 1007.7 1006.9 0.0
03/04:00am 26.0 21.5 2.0 21 11.6 SE 15 17 8 9 1007.5 1006.7 0.0
03/03:30am 26.1 22.0 2.1 21 11.6 SE 13 17 7 9 1007.5 1006.7 0.0
03/03:00am 27.0 22.1 2.1 20 12.2 SE 17 22 9 12 1007.3 1006.5 0.0
03/02:30am 27.6 23.1 1.9 19 12.5 SSE 15 19 8 10 1007.3 1006.5 0.0
03/02:00am 28.0 23.4 1.5 18 12.9 SE 15 17 8 9 1007.4 1006.6 0.0
03/01:30am 28.8 24.2 1.3 17 13.4 SE 15 17 8 9 1007.6 1006.8 0.0
03/01:00am 29.4 24.7 1.0 16 13.8 ESE 15 17 8 9 1007.8 1007.0 0.0
03/12:30am 29.9 25.3 1.4 16 14.0 ESE 15 17 8 9 1007.9 1007.1 0.0
03/12:00am 29.6 25.1 2.0 17 13.7 ESE 15 17 8 9 1008.2 1007.4 0.0
 
Date/Time
EST
Temp
°C
App
Temp
°C
Dew
Point
°C
Rel
Hum
%
Delta-T
°C
Wind Press
QNH
hPa
Press
MSL
hPa
Rain since
9am
mm
Dir  Spd
km/h
Gust
km/h
Spd
kts
Gust
kts
02/11:30pm 29.3 24.7 1.7 17 13.6 ESE 15 17 8 9 1008.3 1007.5 0.0
02/11:00pm 30.1 25.5 1.5 16 14.1 SE 15 17 8 9 1008.3 1007.5 0.0
02/10:30pm 31.6 26.5 0.9 14 15.1 SE 17 22 9 12 1008.4 1007.6 0.0
02/10:00pm 32.1 26.7 1.3 14 15.4 SE 19 22 10 12 1008.1 1007.3 0.0
02/09:30pm 33.7 27.4 1.5 13 16.2 SE 24 30 13 16 1008.0 1007.2 0.0
02/09:00pm 34.1 26.9 0.7 12 16.7 SSE 28 35 15 19 1007.7 1006.9 0.0
02/08:30pm 34.8 27.5 0.0 11 17.2 SSE 28 35 15 19 1007.4 1006.6 0.0

Other Formats:

Comma delimited format used in spreadsheet applications
http://www.bom.gov.au/fwo/IDQ60801/IDQ60801.95487.axf

JavaScript Object Notation format (JSON) in row-major order
http://www.bom.gov.au/fwo/IDQ60801/IDQ60801.95487.json